Terminal Aerodrome Forecast
Issued by NWS Topeka, KS

Home | Current Version | Previous Version | Graphics & Text | Print | Product List | Glossary On
Versions: 1 2 3 4 5 6 7 8 9 10 11 12 13 14 15 16 17 18 19 20
000
FTUS43 KTOP 190900 AAA
TAFTOP
TAF AMD
KTOP 190929Z 1909/2006 20003KT P6SM BKN080
     FM191200 16002KT 5SM BR OVC050
     FM191900 33010KT P6SM VCTS OVC035CB
     FM192200 32015G24KT P6SM -SHRA VCTS OVC025CB
     FM200200 33016G27KT P6SM OVC060=

USA.gov is the U.S. government's official web portal to all federal, state and local government web resources and services.